createdAt,value
2017-03-28T00:00:45.499Z,999.13
2017-03-28T00:01:45.527Z,999.16
2017-03-28T00:02:45.552Z,999.2
2017-03-28T00:03:45.586Z,999.19
2017-03-28T00:04:45.613Z,999.17
2017-03-28T00:05:45.639Z,999.19
2017-03-28T00:06:45.667Z,999.17
2017-03-28T00:07:45.697Z,999.22
2017-03-28T00:08:45.722Z,999.17
2017-03-28T00:09:45.751Z,999.16
2017-03-28T00:10:45.779Z,999.14
2017-03-28T00:11:45.809Z,999.15
2017-03-28T00:12:45.840Z,999.18
2017-03-28T00:13:45.861Z,999.2
2017-03-28T00:14:45.893Z,999.18
2017-03-28T00:15:45.924Z,999.21
2017-03-28T00:16:45.948Z,999.19
2017-03-28T00:17:45.977Z,999.19
2017-03-28T00:18:46.010Z,999.16
2017-03-28T00:19:46.035Z,999.17
2017-03-28T00:20:46.058Z,999.16
2017-03-28T00:21:46.092Z,999.17
2017-03-28T00:22:46.117Z,999.18
2017-03-28T00:23:46.146Z,999.19
2017-03-28T00:24:46.173Z,999.14
2017-03-28T00:25:46.203Z,999.15
2017-03-28T00:26:46.228Z,999.16
2017-03-28T00:27:46.257Z,999.15
2017-03-28T00:28:46.281Z,999.17
2017-03-28T00:29:46.311Z,999.17
2017-03-28T00:30:46.339Z,999.15
2017-03-28T00:31:46.367Z,999.17
2017-03-28T00:32:46.397Z,999.15
2017-03-28T00:33:46.424Z,999.13
2017-03-28T00:34:46.449Z,999.14
2017-03-28T00:35:46.479Z,999.16
2017-03-28T00:36:46.507Z,999.16
2017-03-28T00:37:46.536Z,999.13
2017-03-28T00:38:46.564Z,999.16
2017-03-28T00:39:46.589Z,999.18
2017-03-28T00:40:46.624Z,999.17
2017-03-28T00:41:46.647Z,999.22
2017-03-28T00:42:46.676Z,999.21
2017-03-28T00:43:46.704Z,999.23
2017-03-28T00:44:46.731Z,999.21
2017-03-28T00:45:46.755Z,999.22
2017-03-28T00:46:46.787Z,999.23
2017-03-28T00:47:46.815Z,999.2
2017-03-28T00:48:46.846Z,999.19
2017-03-28T00:49:46.869Z,999.18
2017-03-28T00:50:46.899Z,999.19
2017-03-28T00:51:46.928Z,999.22
2017-03-28T00:52:46.956Z,999.21
2017-03-28T00:53:46.977Z,999.22
2017-03-28T00:54:47.009Z,999.24
2017-03-28T00:55:47.040Z,999.16
2017-03-28T00:56:47.066Z,999.24
2017-03-28T00:57:47.091Z,999.23
2017-03-28T00:58:47.122Z,999.22
2017-03-28T00:59:47.149Z,999.17
2017-03-28T01:00:47.178Z,999.18
2017-03-28T01:01:47.208Z,999.12
2017-03-28T01:02:47.231Z,999.08
2017-03-28T01:03:47.260Z,999.14
2017-03-28T01:04:47.291Z,999.09
2017-03-28T01:05:47.317Z,999.12
2017-03-28T01:06:47.343Z,999.11
2017-03-28T01:07:47.372Z,999.06
2017-03-28T01:08:47.401Z,999.09
2017-03-28T01:09:47.429Z,999.09
2017-03-28T01:10:47.457Z,999.07
2017-03-28T01:11:47.481Z,999.11
2017-03-28T01:12:47.511Z,999.06
2017-03-28T01:13:47.792Z,999.04
2017-03-28T01:14:47.566Z,999.07
2017-03-28T01:15:47.594Z,999.1
2017-03-28T01:16:47.634Z,999.14
2017-03-28T01:17:47.655Z,999.15
2017-03-28T01:18:47.927Z,999.19
2017-03-28T01:19:47.705Z,999.16
2017-03-28T01:20:47.733Z,999.17
2017-03-28T01:21:47.762Z,999.21
2017-03-28T01:22:47.787Z,999.22
2017-03-28T01:23:48.067Z,999.18
2017-03-28T01:24:47.845Z,999.19
2017-03-28T01:25:47.874Z,999.19
2017-03-28T01:26:47.901Z,999.17
2017-03-28T01:27:47.927Z,999.18
2017-03-28T01:28:48.207Z,999.22
2017-03-28T01:29:47.985Z,999.22
2017-03-28T01:30:48.014Z,999.2
2017-03-28T01:31:48.037Z,999.19
2017-03-28T01:32:48.066Z,999.17
2017-03-28T01:33:48.347Z,999.18
2017-03-28T01:34:48.124Z,999.21
2017-03-28T01:35:48.149Z,999.19
2017-03-28T01:36:48.177Z,999.2
2017-03-28T01:37:48.202Z,999.21
2017-03-28T01:38:48.236Z,999.21
2017-03-28T01:39:48.261Z,999.19
2017-03-28T01:40:48.292Z,999.16
2017-03-28T01:41:48.317Z,999.17
2017-03-28T01:42:48.343Z,999.16
2017-03-28T01:43:48.372Z,999.17
2017-03-28T01:44:48.400Z,999.17
2017-03-28T01:45:48.428Z,999.13
2017-03-28T01:46:48.453Z,999.12
2017-03-28T01:47:48.482Z,999.09
2017-03-28T01:48:48.511Z,999.11
2017-03-28T01:49:48.540Z,999.14
2017-03-28T01:50:48.564Z,999.13
2017-03-28T01:51:48.592Z,999.17
2017-03-28T01:52:48.619Z,999.13
2017-03-28T01:53:48.651Z,999.13
2017-03-28T01:54:48.677Z,999.12
2017-03-28T01:55:48.703Z,999.17
2017-03-28T01:56:48.740Z,999.14
2017-03-28T01:57:48.758Z,999.13
2017-03-28T01:58:48.786Z,999.1
2017-03-28T01:59:48.815Z,999.11
2017-03-28T02:00:48.844Z,999.14
2017-03-28T02:01:48.869Z,999.17
2017-03-28T02:02:48.893Z,999.16
2017-03-28T02:03:48.927Z,999.14
2017-03-28T02:04:48.951Z,999.17
2017-03-28T02:05:48.978Z,999.14
2017-03-28T02:06:49.008Z,999.12
2017-03-28T02:07:49.034Z,999.15
2017-03-28T02:08:49.062Z,999.14
2017-03-28T02:09:49.091Z,999.13
2017-03-28T02:10:49.123Z,999.14
2017-03-28T02:11:49.147Z,999.15
2017-03-28T02:12:49.174Z,999.11
2017-03-28T02:13:49.207Z,999.15
2017-03-28T02:14:49.231Z,999.14
2017-03-28T02:15:49.256Z,999.12
2017-03-28T02:16:49.285Z,999.12
2017-03-28T02:17:49.310Z,999.13
2017-03-28T02:18:49.342Z,999.09
2017-03-28T02:19:49.367Z,999.1
2017-03-28T02:20:49.396Z,999.14
2017-03-28T02:21:49.420Z,999.09
2017-03-28T02:22:49.450Z,999.11
2017-03-28T02:23:49.478Z,999.11
2017-03-28T02:24:49.502Z,999.13
2017-03-28T02:25:49.532Z,999.13
2017-03-28T02:26:49.560Z,999.13
2017-03-28T02:27:49.590Z,999.19
2017-03-28T02:28:49.615Z,999.13
2017-03-28T02:29:49.644Z,999.14
2017-03-28T02:30:49.672Z,999.14
2017-03-28T02:31:49.696Z,999.12
2017-03-28T02:32:49.725Z,999.17
2017-03-28T02:33:49.756Z,999.18
2017-03-28T02:34:49.778Z,999.13
2017-03-28T02:35:49.807Z,999.1
2017-03-28T02:36:49.836Z,999.11
2017-03-28T02:37:49.865Z,999.07
2017-03-28T02:38:49.889Z,999.09
2017-03-28T02:39:49.919Z,999.13
2017-03-28T02:40:49.945Z,999.07
2017-03-28T02:41:49.969Z,999.08
2017-03-28T02:42:50.000Z,999.09
2017-03-28T02:43:50.028Z,999.07
2017-03-28T02:44:50.054Z,999.09
2017-03-28T02:45:50.081Z,999.14
2017-03-28T02:46:50.112Z,999.07
2017-03-28T02:47:50.136Z,999.13
2017-03-28T02:48:50.165Z,999.15
2017-03-28T02:49:50.194Z,999.15
2017-03-28T02:50:50.218Z,999.14
2017-03-28T02:51:50.248Z,999.16
2017-03-28T02:52:50.272Z,999.17
2017-03-28T02:53:50.301Z,999.17
2017-03-28T02:54:50.330Z,999.18
2017-03-28T02:55:50.358Z,999.18
2017-03-28T02:56:50.384Z,999.15
2017-03-28T02:57:50.411Z,999.18
2017-03-28T02:58:50.440Z,999.14
2017-03-28T02:59:50.465Z,999.15
2017-03-28T03:00:50.494Z,999.15
2017-03-28T03:01:50.523Z,999.17
2017-03-28T03:02:50.552Z,999.18
2017-03-28T03:03:50.580Z,999.2
2017-03-28T03:04:50.607Z,999.18
2017-03-28T03:05:50.635Z,999.19
2017-03-28T03:06:50.659Z,999.24
2017-03-28T03:07:50.688Z,999.25
2017-03-28T03:08:50.718Z,999.24
2017-03-28T03:09:50.742Z,999.23
2017-03-28T03:10:50.766Z,999.21
2017-03-28T03:11:50.795Z,999.22
2017-03-28T03:12:50.828Z,999.21
2017-03-28T03:13:50.853Z,999.23
2017-03-28T03:14:50.882Z,999.23
2017-03-28T03:15:50.906Z,999.26
2017-03-28T03:16:50.934Z,999.27
2017-03-28T03:17:50.963Z,999.26
2017-03-28T03:18:50.988Z,999.24
2017-03-28T03:19:51.016Z,999.3
2017-03-28T03:20:51.046Z,999.28
2017-03-28T03:21:51.071Z,999.32
2017-03-28T03:22:51.099Z,999.31
2017-03-28T03:23:51.119Z,999.3
2017-03-28T03:24:51.153Z,999.3
2017-03-28T03:25:51.178Z,999.31
2017-03-28T03:26:51.206Z,999.33
2017-03-28T03:27:51.238Z,999.37
2017-03-28T03:28:51.259Z,999.29
2017-03-28T03:29:51.293Z,999.28
2017-03-28T03:30:51.317Z,999.29
2017-03-28T03:31:51.345Z,999.29
2017-03-28T03:32:51.374Z,999.29
2017-03-28T03:33:51.395Z,999.33
2017-03-28T03:34:51.428Z,999.32
2017-03-28T03:35:51.452Z,999.27
2017-03-28T03:36:51.478Z,999.3
2017-03-28T03:37:51.511Z,999.33
2017-03-28T03:38:51.535Z,999.3
2017-03-28T03:39:51.564Z,999.33
2017-03-28T03:40:51.595Z,999.29
2017-03-28T03:41:51.617Z,999.34
2017-03-28T03:42:51.646Z,999.36
2017-03-28T03:43:51.674Z,999.27
2017-03-28T03:44:51.700Z,999.3
2017-03-28T03:45:51.729Z,999.28
2017-03-28T03:46:51.752Z,999.3
2017-03-28T03:47:51.783Z,999.3
2017-03-28T03:48:51.812Z,999.29
2017-03-28T03:49:51.836Z,999.29
2017-03-28T03:50:51.867Z,999.28
2017-03-28T03:51:51.893Z,999.29
2017-03-28T03:52:51.918Z,999.29
2017-03-28T03:53:51.942Z,999.28
2017-03-28T03:54:51.980Z,999.37
2017-03-28T03:55:51.999Z,999.36
2017-03-28T03:56:52.030Z,999.37
2017-03-28T03:57:52.055Z,999.36
2017-03-28T03:58:52.083Z,999.36
2017-03-28T03:59:52.111Z,999.36
2017-03-28T04:00:52.136Z,999.37
2017-03-28T04:01:52.160Z,999.35
2017-03-28T04:02:52.193Z,999.34
2017-03-28T04:03:52.216Z,999.36
2017-03-28T04:04:52.247Z,999.39
2017-03-28T04:05:52.276Z,999.38
2017-03-28T04:06:52.300Z,999.42
2017-03-28T04:07:52.330Z,999.39
2017-03-28T04:08:52.354Z,999.35
2017-03-28T04:09:52.383Z,999.35
2017-03-28T04:10:52.406Z,999.39
2017-03-28T04:11:52.436Z,999.39
2017-03-28T04:12:52.465Z,999.32
2017-03-28T04:13:52.494Z,999.35
2017-03-28T04:14:52.519Z,999.39
2017-03-28T04:15:52.547Z,999.4
2017-03-28T04:16:52.576Z,999.41
2017-03-28T04:17:52.596Z,999.41
2017-03-28T04:18:52.630Z,999.4
2017-03-28T04:19:52.649Z,999.37
2017-03-28T04:20:52.682Z,999.39
2017-03-28T04:21:52.707Z,999.43
2017-03-28T04:22:52.736Z,999.41
2017-03-28T04:23:52.765Z,999.45
2017-03-28T04:24:52.786Z,999.42
2017-03-28T04:25:52.819Z,999.45
2017-03-28T04:26:52.851Z,999.4
2017-03-28T04:27:52.874Z,999.4
2017-03-28T04:28:52.902Z,999.48
2017-03-28T04:29:52.922Z,999.47
2017-03-28T04:30:52.955Z,999.45
2017-03-28T04:31:52.986Z,999.44
2017-03-28T04:32:53.008Z,999.43
2017-03-28T04:33:53.037Z,999.48
2017-03-28T04:34:53.063Z,999.4
2017-03-28T04:35:53.092Z,999.43
2017-03-28T04:36:53.118Z,999.44
2017-03-28T04:37:53.148Z,999.43
2017-03-28T04:38:53.173Z,999.43
2017-03-28T04:39:53.201Z,999.42
2017-03-28T04:40:53.227Z,999.47
2017-03-28T04:41:53.255Z,999.47
2017-03-28T04:42:53.284Z,999.46
2017-03-28T04:43:53.307Z,999.43
2017-03-28T04:44:53.332Z,999.49
2017-03-28T04:45:53.362Z,999.43
2017-03-28T04:46:53.390Z,999.51
2017-03-28T04:47:53.420Z,999.48
2017-03-28T04:48:53.446Z,999.52
2017-03-28T04:49:53.469Z,999.49
2017-03-28T04:50:53.496Z,999.49
2017-03-28T04:51:53.521Z,999.49
2017-03-28T04:52:53.555Z,999.52
2017-03-28T04:53:53.575Z,999.45
2017-03-28T04:54:53.608Z,999.5
2017-03-28T04:55:53.635Z,999.5
2017-03-28T04:56:53.662Z,999.48
2017-03-28T04:57:53.691Z,999.51
2017-03-28T04:58:53.716Z,999.49
2017-03-28T04:59:54.001Z,999.51
2017-03-28T05:00:53.773Z,999.5
2017-03-28T05:01:53.797Z,999.45
2017-03-28T05:02:53.827Z,999.54
2017-03-28T05:03:53.851Z,999.52
2017-03-28T05:04:54.132Z,999.47
2017-03-28T05:05:53.909Z,999.44
2017-03-28T05:06:53.932Z,999.5
2017-03-28T05:07:53.962Z,999.51
2017-03-28T05:08:53.986Z,999.51
2017-03-28T05:09:54.267Z,999.54
2017-03-28T05:10:54.041Z,999.53
2017-03-28T05:11:54.069Z,999.57
2017-03-28T05:12:54.097Z,999.56
2017-03-28T05:13:54.127Z,999.53
2017-03-28T05:14:54.403Z,999.55
2017-03-28T05:15:54.181Z,999.56
2017-03-28T05:16:54.204Z,999.52
2017-03-28T05:17:54.233Z,999.56
2017-03-28T05:18:54.266Z,999.58
2017-03-28T05:19:54.288Z,999.61
2017-03-28T05:20:54.311Z,999.6
2017-03-28T05:21:54.345Z,999.61
2017-03-28T05:22:54.370Z,999.62
2017-03-28T05:23:54.398Z,999.62
2017-03-28T05:24:54.423Z,999.61
2017-03-28T05:25:54.453Z,999.65
2017-03-28T05:26:54.480Z,999.65
2017-03-28T05:27:54.505Z,999.67
2017-03-28T05:28:54.534Z,999.65
2017-03-28T05:29:54.562Z,999.71
2017-03-28T05:30:54.584Z,999.71
2017-03-28T05:31:54.616Z,999.68
2017-03-28T05:32:54.665Z,999.71
2017-03-28T05:33:54.671Z,999.7
2017-03-28T05:34:54.699Z,999.73
2017-03-28T05:35:54.718Z,999.72
2017-03-28T05:36:54.752Z,999.75
2017-03-28T05:37:54.781Z,999.7
2017-03-28T05:38:54.807Z,999.74
2017-03-28T05:39:54.832Z,999.74
2017-03-28T05:40:54.862Z,999.74
2017-03-28T05:41:54.888Z,999.74
2017-03-28T05:42:54.917Z,999.8
2017-03-28T05:43:54.946Z,999.77
2017-03-28T05:44:54.971Z,999.77
2017-03-28T05:45:54.997Z,999.76
2017-03-28T05:46:55.028Z,999.8
2017-03-28T05:47:55.052Z,999.76
2017-03-28T05:48:55.081Z,999.75
2017-03-28T05:49:55.107Z,999.84
2017-03-28T05:50:55.135Z,999.78
2017-03-28T05:51:55.166Z,999.81
2017-03-28T05:52:55.188Z,999.79
2017-03-28T05:53:55.217Z,999.78
2017-03-28T05:54:55.246Z,999.84
2017-03-28T05:55:55.270Z,999.82
2017-03-28T05:56:55.298Z,999.84
2017-03-28T05:57:55.328Z,999.86
2017-03-28T05:58:55.354Z,999.83
2017-03-28T05:59:55.383Z,999.87
2017-03-28T06:00:55.410Z,999.9
2017-03-28T06:01:55.436Z,999.88
2017-03-28T06:02:55.464Z,999.89
2017-03-28T06:03:55.489Z,999.9
2017-03-28T06:04:55.518Z,999.89
2017-03-28T06:05:55.547Z,999.89
2017-03-28T06:06:55.576Z,999.89
2017-03-28T06:07:55.611Z,999.93
2017-03-28T06:08:55.628Z,999.93
2017-03-28T06:09:55.658Z,999.91
2017-03-28T06:10:55.682Z,999.87
2017-03-28T06:11:55.712Z,999.91
2017-03-28T06:12:55.744Z,999.87
2017-03-28T06:13:55.773Z,999.93
2017-03-28T06:14:55.794Z,999.89
2017-03-28T06:15:55.822Z,999.9
2017-03-28T06:16:55.846Z,999.91
2017-03-28T06:17:55.879Z,999.92
2017-03-28T06:18:55.904Z,999.94
2017-03-28T06:19:55.929Z,999.95
2017-03-28T06:20:55.957Z,999.97
2017-03-28T06:21:55.990Z,999.93
2017-03-28T06:22:56.011Z,999.94
2017-03-28T06:23:56.040Z,999.92
2017-03-28T06:24:56.069Z,999.94
2017-03-28T06:25:56.092Z,999.93
2017-03-28T06:26:56.122Z,999.94
2017-03-28T06:27:56.151Z,999.93
2017-03-28T06:28:56.184Z,999.93
2017-03-28T06:29:56.205Z,999.99
2017-03-28T06:30:56.233Z,999.96
2017-03-28T06:31:56.261Z,999.96
2017-03-28T06:32:56.288Z,999.95
2017-03-28T06:33:56.314Z,999.99
2017-03-28T06:34:56.344Z,999.98
2017-03-28T06:35:56.371Z,999.98
2017-03-28T06:36:56.397Z,999.99
2017-03-28T06:37:56.426Z,999.95
2017-03-28T06:38:56.452Z,999.96
2017-03-28T06:39:56.480Z,999.98
2017-03-28T06:40:56.509Z,999.98
2017-03-28T06:41:56.530Z,999.96
2017-03-28T06:42:56.563Z,1000
2017-03-28T06:43:56.592Z,1000.02
2017-03-28T06:44:56.617Z,1000.04
2017-03-28T06:45:56.895Z,1000.03
2017-03-28T06:46:56.670Z,1000.02
2017-03-28T06:47:56.698Z,1000.06
2017-03-28T06:48:56.729Z,1000.02
2017-03-28T06:49:56.756Z,1000.1
2017-03-28T06:50:57.035Z,1000.07
2017-03-28T06:51:56.809Z,1000.05
2017-03-28T06:52:56.838Z,1000.04
2017-03-28T06:53:56.867Z,1000.08
2017-03-28T06:54:56.894Z,1000.03
2017-03-28T06:55:57.172Z,1000.05
2017-03-28T06:56:56.946Z,1000.05
2017-03-28T06:57:56.978Z,1000.03
2017-03-28T06:58:57.002Z,1000.04
2017-03-28T06:59:57.031Z,1000.08
2017-03-28T07:00:57.308Z,1000.06
2017-03-28T07:01:57.084Z,1000.02
2017-03-28T07:02:57.114Z,1000.05
2017-03-28T07:03:57.142Z,1000.07
2017-03-28T07:04:57.167Z,1000.04
2017-03-28T07:05:57.450Z,1000.06
2017-03-28T07:06:57.225Z,1000.04
2017-03-28T07:07:57.254Z,1000.05
2017-03-28T07:08:57.278Z,1000.02
2017-03-28T07:09:57.311Z,1000.03
2017-03-28T07:10:57.335Z,1000.03
2017-03-28T07:11:57.360Z,1000.07
2017-03-28T07:12:57.389Z,1000.09
2017-03-28T07:13:57.418Z,1000.1
2017-03-28T07:14:57.441Z,1000.05
2017-03-28T07:15:57.471Z,1000.08
2017-03-28T07:16:57.497Z,1000.07
2017-03-28T07:17:57.529Z,1000.11
2017-03-28T07:18:57.577Z,1000.1
2017-03-28T07:19:57.580Z,1000.07
2017-03-28T07:20:57.609Z,1000.13
2017-03-28T07:21:57.634Z,1000.13
2017-03-28T07:22:57.665Z,1000.08
2017-03-28T07:23:57.693Z,1000.12
2017-03-28T07:24:57.721Z,1000.13
2017-03-28T07:25:57.746Z,1000.11
2017-03-28T07:26:57.776Z,1000.14
2017-03-28T07:27:57.802Z,1000.17
2017-03-28T07:28:57.830Z,1000.19
2017-03-28T07:29:57.861Z,1000.28
2017-03-28T07:30:57.887Z,1000.36
2017-03-28T07:31:57.912Z,1000.4
2017-03-28T07:32:57.940Z,1000.44
2017-03-28T07:33:57.965Z,1000.44
2017-03-28T07:34:57.999Z,1000.45
2017-03-28T07:35:58.019Z,1000.43
2017-03-28T07:36:58.054Z,1000.41
2017-03-28T07:37:58.084Z,1000.37
2017-03-28T07:38:58.115Z,1000.43
2017-03-28T07:39:58.139Z,1000.4
2017-03-28T07:40:58.166Z,1000.34
2017-03-28T07:41:58.199Z,1000.35
2017-03-28T07:42:58.221Z,1000.36
2017-03-28T07:43:58.249Z,1000.39
2017-03-28T07:44:58.282Z,1000.34
2017-03-28T07:45:58.311Z,1000.33
2017-03-28T07:46:58.340Z,1000.25
2017-03-28T07:47:58.368Z,1000.29
2017-03-28T07:48:58.402Z,1000.28
2017-03-28T07:49:58.425Z,1000.29
2017-03-28T07:50:58.453Z,1000.28
2017-03-28T07:51:58.484Z,1000.25
2017-03-28T07:52:58.507Z,1000.28
2017-03-28T07:53:58.540Z,1000.27
2017-03-28T07:54:58.572Z,1000.27
2017-03-28T07:55:58.601Z,1000.25
2017-03-28T07:56:58.631Z,1000.23
2017-03-28T07:57:58.659Z,1000.25
2017-03-28T07:58:58.687Z,1000.26
2017-03-28T07:59:58.719Z,1000.23
2017-03-28T08:00:58.745Z,1000.29
2017-03-28T08:01:58.775Z,1000.25
2017-03-28T08:02:58.804Z,1000.24
2017-03-28T08:03:58.833Z,1000.22
2017-03-28T08:04:58.859Z,1000.25
2017-03-28T08:05:58.893Z,1000.27
2017-03-28T08:06:58.923Z,1000.25
2017-03-28T08:07:58.951Z,1000.2
2017-03-28T08:08:58.980Z,1000.24
2017-03-28T08:09:59.004Z,1000.28
2017-03-28T08:10:59.038Z,1000.28
2017-03-28T08:11:59.066Z,1000.28
2017-03-28T08:12:59.096Z,1000.31
2017-03-28T08:13:59.125Z,1000.28
2017-03-28T08:14:59.165Z,1000.3
2017-03-28T08:15:59.182Z,1000.3
2017-03-28T08:16:59.462Z,1000.3
2017-03-28T08:17:59.240Z,1000.29
2017-03-28T08:18:59.268Z,1000.34
2017-03-28T08:19:59.297Z,1000.36
2017-03-28T08:20:59.326Z,1000.35
2017-03-28T08:21:59.354Z,1000.36
2017-03-28T08:22:59.383Z,1000.31
2017-03-28T08:23:59.407Z,1000.34
2017-03-28T08:24:59.441Z,1000.35
2017-03-28T08:25:59.468Z,1000.38
2017-03-28T08:26:59.498Z,1000.36
2017-03-28T08:27:59.527Z,1000.35
2017-03-28T08:28:59.555Z,1000.39
2017-03-28T08:29:59.584Z,1000.38
2017-03-28T08:30:59.612Z,1000.38
2017-03-28T08:31:59.641Z,1000.35
2017-03-28T08:32:59.671Z,1000.36
2017-03-28T08:33:59.696Z,1000.4
2017-03-28T08:34:59.724Z,1000.41
2017-03-28T08:35:59.753Z,1000.39
2017-03-28T08:36:59.778Z,1000.37
2017-03-28T08:37:59.810Z,1000.37
2017-03-28T08:38:59.842Z,1000.39
2017-03-28T08:39:59.868Z,1000.35
2017-03-28T08:40:59.897Z,1000.38
2017-03-28T08:41:59.926Z,1000.35
2017-03-28T08:42:59.951Z,1000.35
2017-03-28T08:43:59.984Z,1000.32
2017-03-28T08:45:00.012Z,1000.36
2017-03-28T08:46:00.036Z,1000.33
2017-03-28T08:47:00.064Z,1000.36
2017-03-28T08:48:00.094Z,1000.34
2017-03-28T08:49:00.122Z,1000.36
2017-03-28T08:50:00.151Z,1000.39
2017-03-28T08:51:00.180Z,1000.38
2017-03-28T08:52:00.209Z,1000.35
2017-03-28T08:53:00.234Z,1000.38
2017-03-28T08:54:00.265Z,1000.43
2017-03-28T08:55:00.296Z,1000.46
2017-03-28T08:56:00.319Z,1000.47
2017-03-28T08:57:00.348Z,1000.49
2017-03-28T08:58:00.376Z,1000.49
2017-03-28T08:59:00.406Z,1000.58
2017-03-28T09:00:00.434Z,1000.57
2017-03-28T09:01:00.463Z,1000.58
2017-03-28T09:02:00.491Z,1000.56
2017-03-28T09:03:00.519Z,1000.51
2017-03-28T09:04:00.549Z,1000.48
2017-03-28T09:05:00.578Z,1000.44
2017-03-28T09:06:00.607Z,1000.47
2017-03-28T09:07:00.631Z,1000.4
2017-03-28T09:08:00.660Z,1000.44
2017-03-28T09:09:00.689Z,1000.48
2017-03-28T09:10:00.718Z,1000.44
2017-03-28T09:11:00.747Z,1000.41
2017-03-28T09:12:00.771Z,1000.45
2017-03-28T09:13:00.804Z,1000.41
2017-03-28T09:14:00.833Z,1000.42
2017-03-28T09:15:00.861Z,1000.43
2017-03-28T09:16:00.885Z,1000.42
2017-03-28T09:17:00.914Z,1000.41
2017-03-28T09:18:00.948Z,1000.44
2017-03-28T09:19:00.977Z,1000.41
2017-03-28T09:20:01.002Z,1000.46
2017-03-28T09:21:01.034Z,1000.47
2017-03-28T09:22:01.064Z,1000.46
2017-03-28T09:23:01.094Z,1000.5
2017-03-28T09:24:01.119Z,1000.53
2017-03-28T09:25:01.153Z,1000.51
2017-03-28T09:26:01.179Z,1000.55
2017-03-28T09:27:01.208Z,1000.53
2017-03-28T09:28:01.488Z,1000.54
2017-03-28T09:29:01.269Z,1000.6
2017-03-28T09:30:01.293Z,1000.57
2017-03-28T09:31:01.322Z,1000.58
2017-03-28T09:32:01.351Z,1000.56
2017-03-28T09:33:01.379Z,1000.56
2017-03-28T09:34:01.411Z,1000.58
2017-03-28T09:35:01.438Z,1000.57
2017-03-28T09:36:01.461Z,1000.62
2017-03-28T09:37:01.495Z,1000.61
2017-03-28T09:38:01.524Z,1000.66
2017-03-28T09:39:01.553Z,1000.63
2017-03-28T09:40:01.582Z,1000.66
2017-03-28T09:41:01.635Z,1000.67
2017-03-28T09:42:01.638Z,1000.68
2017-03-28T09:43:01.667Z,1000.68
2017-03-28T09:44:01.700Z,1000.64
2017-03-28T09:45:01.724Z,1000.66
2017-03-28T09:46:01.753Z,1000.66
2017-03-28T09:47:01.782Z,1000.66
2017-03-28T09:48:01.811Z,1000.65
2017-03-28T09:49:01.840Z,1000.64
2017-03-28T09:50:01.869Z,1000.6
2017-03-28T09:51:01.897Z,1000.63
2017-03-28T09:52:01.927Z,1000.62
2017-03-28T09:53:01.955Z,1000.62
2017-03-28T09:54:01.984Z,1000.63
2017-03-28T09:55:02.011Z,1000.59
2017-03-28T09:56:02.040Z,1000.63
2017-03-28T09:57:02.073Z,1000.59
2017-03-28T09:58:02.095Z,1000.6
2017-03-28T09:59:02.127Z,1000.62
2017-03-28T10:00:02.155Z,1000.61
2017-03-28T10:01:02.184Z,1000.59
2017-03-28T10:02:02.213Z,1000.65
2017-03-28T10:03:02.242Z,1000.59
2017-03-28T10:04:02.272Z,1000.61
2017-03-28T10:05:02.300Z,1000.6
2017-03-28T10:06:02.327Z,1000.6
2017-03-28T10:07:02.372Z,1000.55
2017-03-28T10:08:02.385Z,1000.57
2017-03-28T10:09:02.410Z,1000.56
2017-03-28T10:10:02.442Z,1000.57
2017-03-28T10:11:02.470Z,1000.54
2017-03-28T10:12:02.500Z,1000.61
2017-03-28T10:13:02.528Z,1000.58
2017-03-28T10:14:02.555Z,1000.56
2017-03-28T10:15:02.587Z,1000.57
2017-03-28T10:16:02.621Z,1000.59
2017-03-28T10:17:02.645Z,1000.56
2017-03-28T10:18:02.674Z,1000.58
2017-03-28T10:19:02.703Z,1000.56
2017-03-28T10:20:02.731Z,1000.58
2017-03-28T10:21:02.761Z,1000.59
2017-03-28T10:22:02.790Z,1000.6
2017-03-28T10:23:02.818Z,1000.58
2017-03-28T10:24:02.849Z,1000.55
2017-03-28T10:25:02.876Z,1000.58
2017-03-28T10:26:02.908Z,1000.55
2017-03-28T10:27:02.933Z,1000.56
2017-03-28T10:28:02.963Z,1000.56
2017-03-28T10:29:02.993Z,1000.55
2017-03-28T10:30:03.022Z,1000.55
2017-03-28T10:31:03.084Z,1000.54
2017-03-28T10:32:03.079Z,1000.56
2017-03-28T10:33:03.113Z,1000.51
2017-03-28T10:34:03.138Z,1000.5
2017-03-28T10:35:03.165Z,1000.55
2017-03-28T10:36:03.192Z,1000.54
2017-03-28T10:37:03.227Z,1000.53
2017-03-28T10:38:03.254Z,1000.51
2017-03-28T10:39:03.282Z,1000.56
2017-03-28T10:40:03.309Z,1000.55
2017-03-28T10:41:03.343Z,1000.54
2017-03-28T10:42:03.364Z,1000.51
2017-03-28T10:43:03.400Z,1000.55
2017-03-28T10:44:03.430Z,1000.48
2017-03-28T10:45:03.454Z,1000.57
2017-03-28T10:46:03.487Z,1000.5
2017-03-28T10:47:03.516Z,1000.53
2017-03-28T10:48:03.545Z,1000.57
2017-03-28T10:49:03.573Z,1000.59
2017-03-28T10:50:03.601Z,1000.56
2017-03-28T10:51:03.636Z,1000.55
2017-03-28T10:52:03.664Z,1000.6
2017-03-28T10:53:03.688Z,1000.57
2017-03-28T10:54:03.721Z,1000.57
2017-03-28T10:55:03.750Z,1000.55
2017-03-28T10:56:03.774Z,1000.61
2017-03-28T10:57:03.806Z,1000.56
2017-03-28T10:58:03.840Z,1000.51
2017-03-28T10:59:03.869Z,1000.51
2017-03-28T11:00:03.893Z,1000.54
2017-03-28T11:01:03.925Z,1000.54
2017-03-28T11:02:03.954Z,1000.6
2017-03-28T11:03:03.988Z,1000.53
2017-03-28T11:04:04.012Z,1000.55
2017-03-28T11:05:04.040Z,1000.56
2017-03-28T11:06:04.071Z,1000.53
2017-03-28T11:07:04.098Z,1000.54
2017-03-28T11:08:04.127Z,1000.56
2017-03-28T11:09:04.411Z,1000.52
2017-03-28T11:10:04.190Z,1000.5
2017-03-28T11:11:04.218Z,1000.57
2017-03-28T11:12:04.247Z,1000.54
2017-03-28T11:13:04.275Z,1000.55
2017-03-28T11:14:04.556Z,1000.5
2017-03-28T11:15:04.332Z,1000.54
2017-03-28T11:16:04.365Z,1000.55
2017-03-28T11:17:04.393Z,1000.5
2017-03-28T11:18:04.421Z,1000.51
2017-03-28T11:19:04.448Z,1000.52
2017-03-28T11:20:04.481Z,1000.53
2017-03-28T11:21:04.514Z,1000.55
2017-03-28T11:22:04.539Z,1000.52
2017-03-28T11:23:04.574Z,1000.5
2017-03-28T11:24:04.595Z,1000.52
2017-03-28T11:25:04.629Z,1000.51
2017-03-28T11:26:04.656Z,1000.54
2017-03-28T11:27:04.685Z,1000.51
2017-03-28T11:28:04.718Z,1000.54
2017-03-28T11:29:04.748Z,1000.53
2017-03-28T11:30:04.775Z,1000.54
2017-03-28T11:31:04.806Z,1000.58
2017-03-28T11:32:04.834Z,1000.57
2017-03-28T11:33:04.863Z,1000.58
2017-03-28T11:34:04.894Z,1000.65
2017-03-28T11:35:04.923Z,1000.7
2017-03-28T11:36:04.951Z,1000.7
2017-03-28T11:37:04.982Z,1000.73
2017-03-28T11:38:05.015Z,1000.73
2017-03-28T11:39:05.048Z,1000.74
2017-03-28T11:40:05.072Z,1000.71
2017-03-28T11:41:05.131Z,1000.74
2017-03-28T11:42:05.129Z,1000.76
2017-03-28T11:43:05.161Z,1000.78
2017-03-28T11:44:05.189Z,1000.79
2017-03-28T11:45:05.221Z,1000.83
2017-03-28T11:46:05.253Z,1000.78
2017-03-28T11:47:05.277Z,1000.73
2017-03-28T11:48:05.309Z,1000.76
2017-03-28T11:49:05.339Z,1000.77
2017-03-28T11:50:05.366Z,1000.74
2017-03-28T11:51:05.391Z,1000.73
2017-03-28T11:52:05.429Z,1000.75
2017-03-28T11:53:05.453Z,1000.76
2017-03-28T11:54:05.487Z,1000.82
2017-03-28T11:55:05.516Z,1000.8
2017-03-28T11:56:05.544Z,1000.82
2017-03-28T11:57:05.577Z,1000.83
2017-03-28T11:58:05.606Z,1000.81
2017-03-28T11:59:05.633Z,1000.82
2017-03-28T12:00:05.662Z,1000.87
2017-03-28T12:01:05.696Z,1000.81
2017-03-28T12:02:05.724Z,1000.81
2017-03-28T12:03:05.756Z,1000.84
2017-03-28T12:04:05.790Z,1000.83
2017-03-28T12:05:05.819Z,1000.9
2017-03-28T12:06:05.844Z,1000.92
2017-03-28T12:07:05.880Z,1001
2017-03-28T12:08:05.912Z,1000.99
2017-03-28T12:09:05.946Z,1001.04
2017-03-28T12:10:05.975Z,1001.07
2017-03-28T12:11:06.008Z,1001.18
2017-03-28T12:12:06.036Z,1001.17
2017-03-28T12:13:06.068Z,1001.2
2017-03-28T12:14:06.102Z,1001.27
2017-03-28T12:15:06.131Z,1001.22
2017-03-28T12:16:06.163Z,1001.26
2017-03-28T12:17:06.192Z,1001.33
2017-03-28T12:18:06.228Z,1001.42
2017-03-28T12:19:06.257Z,1001.45
2017-03-28T12:20:06.294Z,1001.48
2017-03-28T12:21:06.323Z,1001.48